createdAt,value
2022-08-03T00:00:24.352Z,50.00
2022-08-03T00:02:51.498Z,50.22
2022-08-03T00:05:18.316Z,50.03
2022-08-03T00:07:44.991Z,50.03
2022-08-03T00:10:13.588Z,50.13
2022-08-03T00:12:40.189Z,50.28
2022-08-03T00:15:11.240Z,50.69
2022-08-03T00:17:52.322Z,50.70
2022-08-03T00:20:19.955Z,50.77
2022-08-03T00:22:46.553Z,51.12
2022-08-03T00:25:13.263Z,50.81
2022-08-03T00:27:39.950Z,51.17
2022-08-03T00:30:07.430Z,51.22
2022-08-03T00:32:34.167Z,51.11
2022-08-03T00:35:00.760Z,50.92
2022-08-03T00:37:41.260Z,50.67
2022-08-03T00:40:13.346Z,50.80
2022-08-03T00:43:00.928Z,51.19
2022-08-03T00:45:32.915Z,50.98
2022-08-03T00:48:01.548Z,50.73
2022-08-03T00:50:30.414Z,51.22
2022-08-03T00:52:59.154Z,50.80
2022-08-03T00:55:26.436Z,51.00
2022-08-03T00:57:54.180Z,51.01
2022-08-03T01:00:24.341Z,51.01
2022-08-03T01:02:51.823Z,51.08
2022-08-03T01:05:19.284Z,51.14
2022-08-03T01:08:08.258Z,51.06
2022-08-03T01:10:49.999Z,51.24
2022-08-03T01:14:03.680Z,51.05
2022-08-03T01:16:35.807Z,50.80
2022-08-03T01:19:30.010Z,51.04
2022-08-03T01:22:23.966Z,50.99
2022-08-03T01:24:50.528Z,51.25
2022-08-03T01:27:29.873Z,50.96
2022-08-03T01:30:08.478Z,50.92
2022-08-03T01:32:53.304Z,51.03
2022-08-03T01:35:44.862Z,50.71
2022-08-03T01:38:27.288Z,50.62
2022-08-03T01:40:56.275Z,50.32
2022-08-03T01:44:28.303Z,50.26
2022-08-03T01:46:15.906Z,50.18
2022-08-03T01:48:44.575Z,49.94
2022-08-03T01:51:12.242Z,50.13
2022-08-03T01:53:42.926Z,50.24
2022-08-03T01:56:10.911Z,49.95
2022-08-03T01:58:39.945Z,50.08
2022-08-03T02:01:08.940Z,50.10
2022-08-03T02:03:59.536Z,50.64
2022-08-03T02:06:59.926Z,50.83
2022-08-03T02:09:15.515Z,51.07
2022-08-03T02:11:43.890Z,51.06
2022-08-03T02:14:11.253Z,51.37
2022-08-03T02:16:38.263Z,51.38
2022-08-03T02:19:07.503Z,50.86
2022-08-03T02:21:57.135Z,51.19
2022-08-03T02:24:24.490Z,51.34
2022-08-03T02:26:55.642Z,51.21
2022-08-03T02:29:40.070Z,51.59
2022-08-03T02:32:11.912Z,51.41
2022-08-03T02:34:42.387Z,51.49
2022-08-03T02:37:11.861Z,51.23
2022-08-03T02:39:40.926Z,51.21
2022-08-03T02:42:09.655Z,50.97
2022-08-03T02:44:40.489Z,50.62
2022-08-03T02:47:11.015Z,50.60
2022-08-03T02:49:51.504Z,50.57
2022-08-03T02:52:21.632Z,50.71
2022-08-03T02:54:51.329Z,50.92
2022-08-03T02:57:20.173Z,51.04
2022-08-03T02:59:48.057Z,50.82
2022-08-03T03:02:16.590Z,50.78
2022-08-03T03:05:50.683Z,50.43
2022-08-03T03:07:39.131Z,50.37
2022-08-03T03:10:24.606Z,50.80
2022-08-03T03:12:55.248Z,50.63
2022-08-03T03:15:23.560Z,50.93
2022-08-03T03:17:51.940Z,50.77
2022-08-03T03:20:26.711Z,51.13
2022-08-03T03:22:59.074Z,50.94
2022-08-03T03:25:26.240Z,51.02
2022-08-03T03:27:53.353Z,51.22
2022-08-03T03:30:19.946Z,51.65
2022-08-03T03:32:46.630Z,51.33
2022-08-03T03:35:14.140Z,51.14
2022-08-03T03:37:40.886Z,51.05
2022-08-03T03:40:09.136Z,51.42
2022-08-03T03:42:36.145Z,51.43
2022-08-03T03:45:07.803Z,51.54
2022-08-03T03:47:35.704Z,51.38
2022-08-03T03:50:04.836Z,51.35
2022-08-03T03:52:34.605Z,51.52
2022-08-03T03:55:01.842Z,51.86
2022-08-03T03:57:29.593Z,51.61
2022-08-03T03:59:56.759Z,51.58
2022-08-03T04:02:23.535Z,51.53
2022-08-03T04:05:08.795Z,51.46
2022-08-03T04:08:07.602Z,51.71
2022-08-03T04:10:54.674Z,52.10
2022-08-03T04:13:22.177Z,52.41
2022-08-03T04:15:50.661Z,52.27
2022-08-03T04:18:19.138Z,52.50
2022-08-03T04:20:48.904Z,52.62
2022-08-03T04:23:20.512Z,52.73
2022-08-03T04:25:51.642Z,52.59
2022-08-03T04:28:31.070Z,52.43
2022-08-03T04:31:01.084Z,52.47
2022-08-03T04:33:30.302Z,52.11
2022-08-03T04:36:02.757Z,52.07
2022-08-03T04:38:33.026Z,52.36
2022-08-03T04:41:01.563Z,52.42
2022-08-03T04:43:29.697Z,52.54
2022-08-03T04:45:57.057Z,52.53
2022-08-03T04:48:24.596Z,52.60
2022-08-03T04:50:51.950Z,52.91
2022-08-03T04:53:19.554Z,53.12
2022-08-03T04:55:46.636Z,52.89
2022-08-03T04:58:13.487Z,53.27
2022-08-03T05:00:40.190Z,53.27
2022-08-03T05:03:23.629Z,53.51
2022-08-03T05:06:01.670Z,53.95
2022-08-03T05:08:29.086Z,53.87
2022-08-03T05:10:59.304Z,53.41
2022-08-03T05:13:26.264Z,53.88
2022-08-03T05:15:53.055Z,53.84
2022-08-03T05:18:19.979Z,53.81
2022-08-03T05:20:46.906Z,53.99
2022-08-03T05:23:13.589Z,53.72
2022-08-03T05:25:40.229Z,53.47
2022-08-03T05:28:16.212Z,53.25
2022-08-03T05:30:42.896Z,53.87
2022-08-03T05:33:09.432Z,54.33
2022-08-03T05:36:01.124Z,54.19
2022-08-03T05:38:28.559Z,54.17
2022-08-03T05:41:22.724Z,53.96
2022-08-03T05:43:46.780Z,53.60
2022-08-03T05:46:13.850Z,53.72
2022-08-03T05:48:41.280Z,53.63
2022-08-03T05:51:11.719Z,53.36
2022-08-03T05:53:42.221Z,53.18
2022-08-03T05:56:14.104Z,53.40
2022-08-03T05:58:48.469Z,53.65
2022-08-03T06:01:19.111Z,52.87
2022-08-03T06:03:46.576Z,51.46
2022-08-03T06:06:13.154Z,50.83
2022-08-03T06:08:40.854Z,50.05
2022-08-03T06:11:07.990Z,49.74
2022-08-03T06:13:34.948Z,49.39
2022-08-03T06:16:02.075Z,49.02
2022-08-03T06:18:28.835Z,48.70
2022-08-03T06:20:55.501Z,48.85
2022-08-03T06:23:22.191Z,48.89
2022-08-03T06:25:48.982Z,48.10
2022-08-03T06:28:42.512Z,47.63
2022-08-03T06:31:03.701Z,46.84
2022-08-03T06:34:22.832Z,47.01
2022-08-03T06:36:20.435Z,46.93
2022-08-03T06:38:47.048Z,45.80
2022-08-03T06:41:13.619Z,45.37
2022-08-03T06:44:03.392Z,44.91
2022-08-03T06:46:27.470Z,44.72
2022-08-03T06:48:54.198Z,44.65
2022-08-03T06:51:20.779Z,44.80
2022-08-03T06:54:08.124Z,44.75
2022-08-03T06:56:34.910Z,45.06
2022-08-03T06:59:01.706Z,44.57
2022-08-03T07:01:28.321Z,45.11
2022-08-03T07:03:56.434Z,44.90
2022-08-03T07:06:23.035Z,44.98
2022-08-03T07:08:52.943Z,44.77
2022-08-03T07:11:21.083Z,44.60
2022-08-03T07:13:47.611Z,44.51
2022-08-03T07:16:14.467Z,43.91
2022-08-03T07:18:41.207Z,44.18
2022-08-03T07:21:09.397Z,44.03
2022-08-03T07:23:35.957Z,44.24
2022-08-03T07:26:02.718Z,44.71
2022-08-03T07:28:29.410Z,44.54
2022-08-03T07:30:56.115Z,44.61
2022-08-03T07:33:23.082Z,44.84
2022-08-03T07:35:49.748Z,44.61
2022-08-03T07:38:16.407Z,44.52
2022-08-03T07:40:46.178Z,44.46
2022-08-03T07:43:13.166Z,44.14
2022-08-03T07:45:39.931Z,43.61
2022-08-03T07:48:11.775Z,43.27
2022-08-03T07:50:39.026Z,43.51
2022-08-03T07:53:05.830Z,43.40
2022-08-03T07:55:32.576Z,42.80
2022-08-03T07:58:19.168Z,42.65
2022-08-03T08:00:49.018Z,42.57
2022-08-03T08:03:15.722Z,42.63
2022-08-03T08:05:42.575Z,42.81
2022-08-03T08:08:09.225Z,42.57
2022-08-03T08:10:36.015Z,42.04
2022-08-03T08:13:03.721Z,42.06
2022-08-03T08:15:31.654Z,42.66
2022-08-03T08:18:01.080Z,42.74
2022-08-03T08:20:32.896Z,42.39
2022-08-03T08:23:22.304Z,41.61
2022-08-03T08:25:52.497Z,41.62
2022-08-03T08:28:30.710Z,40.93
2022-08-03T08:30:59.755Z,40.56
2022-08-03T08:33:37.252Z,40.42
2022-08-03T08:36:14.760Z,40.10
2022-08-03T08:38:42.753Z,39.60
2022-08-03T08:41:11.549Z,38.20
2022-08-03T08:43:38.679Z,38.50
2022-08-03T08:46:08.562Z,38.65
2022-08-03T08:48:39.937Z,38.42
2022-08-03T08:51:08.601Z,37.60
2022-08-03T08:53:37.700Z,38.43
2022-08-03T08:56:05.504Z,37.93
2022-08-03T08:58:38.196Z,35.96
2022-08-03T09:01:05.688Z,36.43
2022-08-03T09:03:34.397Z,36.69
2022-08-03T09:06:02.295Z,36.29
2022-08-03T09:08:30.941Z,35.82
2022-08-03T09:10:58.064Z,35.61
2022-08-03T09:13:25.062Z,35.64
2022-08-03T09:16:14.670Z,35.31
2022-08-03T09:18:44.653Z,35.83
2022-08-03T09:21:31.254Z,35.41
2022-08-03T09:24:03.243Z,35.36
2022-08-03T09:26:32.043Z,35.46
2022-08-03T09:29:11.213Z,35.66
2022-08-03T09:31:46.299Z,34.98
2022-08-03T09:34:15.420Z,35.35
2022-08-03T09:36:48.960Z,35.13
2022-08-03T09:39:40.176Z,34.16
2022-08-03T09:42:17.327Z,34.50
2022-08-03T09:44:47.746Z,35.08
2022-08-03T09:47:17.216Z,34.92
2022-08-03T09:49:58.091Z,34.40
2022-08-03T09:52:50.222Z,33.72
2022-08-03T09:56:32.639Z,34.32
2022-08-03T09:58:11.012Z,33.97
2022-08-03T10:01:04.215Z,33.53
2022-08-03T10:03:35.134Z,32.93
2022-08-03T10:06:28.741Z,32.18
2022-08-03T10:09:07.001Z,32.02
2022-08-03T10:11:41.252Z,31.65
2022-08-03T10:14:11.358Z,30.72
2022-08-03T10:16:40.427Z,30.50
2022-08-03T10:19:08.643Z,31.37
2022-08-03T10:21:39.264Z,31.40
2022-08-03T10:24:08.491Z,31.37
2022-08-03T10:26:50.035Z,30.79
2022-08-03T10:29:28.219Z,30.31
2022-08-03T10:31:58.726Z,30.35
2022-08-03T10:34:35.523Z,30.04
2022-08-03T10:37:10.983Z,29.99
2022-08-03T10:39:37.961Z,30.09
2022-08-03T10:42:05.924Z,30.23
2022-08-03T10:44:42.538Z,29.09
2022-08-03T10:47:13.041Z,29.22
2022-08-03T10:49:40.233Z,28.75
2022-08-03T10:52:10.415Z,28.29
2022-08-03T10:55:03.489Z,28.56
2022-08-03T10:57:59.088Z,28.04
2022-08-03T11:00:30.096Z,28.03
2022-08-03T11:03:06.763Z,27.58
2022-08-03T11:05:36.337Z,27.39
2022-08-03T11:08:22.979Z,27.28
2022-08-03T11:10:51.320Z,27.30
2022-08-03T11:13:23.601Z,26.74
2022-08-03T11:15:53.581Z,26.43
2022-08-03T11:18:27.205Z,26.49
2022-08-03T11:20:56.286Z,26.58
2022-08-03T11:24:03.215Z,26.52
2022-08-03T11:26:33.082Z,26.24
2022-08-03T11:29:29.005Z,25.43
2022-08-03T11:31:55.711Z,25.74
2022-08-03T11:34:24.571Z,25.58
2022-08-03T11:37:21.847Z,24.83
2022-08-03T11:39:50.343Z,25.11
2022-08-03T11:42:23.254Z,24.56
2022-08-03T11:44:52.013Z,24.23
2022-08-03T11:47:23.179Z,24.20
2022-08-03T11:49:53.064Z,24.19
2022-08-03T11:52:27.189Z,24.17
2022-08-03T11:54:57.165Z,24.59
2022-08-03T11:59:00.815Z,24.19
2022-08-03T12:00:27.062Z,24.47
2022-08-03T12:02:59.152Z,23.29
2022-08-03T12:05:51.759Z,23.74
2022-08-03T12:08:28.123Z,23.57
2022-08-03T12:11:00.484Z,22.89
2022-08-03T12:14:44.635Z,23.34
2022-08-03T12:16:26.061Z,23.03
2022-08-03T12:19:01.622Z,22.91
2022-08-03T12:21:29.312Z,22.77
2022-08-03T12:24:01.373Z,23.20
2022-08-03T12:26:30.117Z,22.27
2022-08-03T12:28:57.424Z,22.20
2022-08-03T12:31:24.898Z,21.36
2022-08-03T12:33:58.935Z,21.64
2022-08-03T12:36:26.798Z,21.63
2022-08-03T12:38:59.077Z,20.76
2022-08-03T12:41:34.373Z,21.36
2022-08-03T12:44:03.587Z,20.69
2022-08-03T12:46:46.911Z,19.87
2022-08-03T12:49:17.919Z,20.13
2022-08-03T12:52:07.594Z,20.31
2022-08-03T12:54:36.052Z,19.82
2022-08-03T12:57:16.215Z,19.87
2022-08-03T12:59:53.127Z,19.96
2022-08-03T13:02:24.264Z,19.96
2022-08-03T13:04:53.309Z,19.45
2022-08-03T13:07:20.884Z,19.46
2022-08-03T13:09:58.653Z,20.12
2022-08-03T13:12:27.970Z,20.63
2022-08-03T13:15:01.010Z,20.09
2022-08-03T13:17:28.383Z,20.20
2022-08-03T13:19:55.097Z,20.10
2022-08-03T13:22:27.352Z,19.57
2022-08-03T13:24:56.651Z,20.09
2022-08-03T13:28:03.422Z,19.91
2022-08-03T13:30:21.070Z,19.94
2022-08-03T13:32:58.607Z,20.69
2022-08-03T13:35:25.595Z,20.66
2022-08-03T13:37:52.276Z,20.60
2022-08-03T13:40:18.995Z,20.59
2022-08-03T13:42:50.410Z,20.38
2022-08-03T13:45:17.132Z,20.72
2022-08-03T13:47:43.701Z,20.71
2022-08-03T13:50:10.330Z,20.95
2022-08-03T13:52:37.060Z,21.20
2022-08-03T13:55:07.441Z,22.26
2022-08-03T13:58:04.142Z,22.47
2022-08-03T14:00:28.929Z,23.07
2022-08-03T14:03:04.016Z,23.61
2022-08-03T14:05:34.480Z,23.98
2022-08-03T14:08:03.962Z,23.60
2022-08-03T14:10:32.786Z,24.23
2022-08-03T14:13:00.496Z,24.14
2022-08-03T14:15:28.563Z,24.75
2022-08-03T14:17:55.884Z,25.20
2022-08-03T14:20:38.034Z,24.90
2022-08-03T14:23:07.369Z,25.71
2022-08-03T14:25:43.134Z,25.59
2022-08-03T14:28:21.127Z,25.12
2022-08-03T14:30:48.718Z,26.01
2022-08-03T14:33:15.600Z,25.57
2022-08-03T14:35:42.319Z,25.78
2022-08-03T14:38:08.900Z,25.79
2022-08-03T14:40:35.545Z,25.75
2022-08-03T14:43:02.616Z,25.85
2022-08-03T14:45:29.352Z,25.68
2022-08-03T14:50:34.054Z,25.77
2022-08-03T14:50:48.379Z,25.70
2022-08-03T14:53:20.385Z,25.79
2022-08-03T14:55:49.752Z,25.77
2022-08-03T14:58:20.027Z,26.30
2022-08-03T15:00:49.455Z,26.66
2022-08-03T15:03:17.121Z,26.95
2022-08-03T15:05:44.570Z,26.94
2022-08-03T15:08:11.404Z,26.31
2022-08-03T15:10:43.950Z,26.10
2022-08-03T15:13:15.212Z,26.29
2022-08-03T15:15:41.982Z,26.04
2022-08-03T15:18:08.973Z,26.38
2022-08-03T15:20:44.515Z,26.17
2022-08-03T15:23:12.920Z,25.86
2022-08-03T15:26:28.359Z,26.82
2022-08-03T15:28:26.220Z,27.07
2022-08-03T15:30:53.213Z,27.32
2022-08-03T15:33:20.261Z,27.32
2022-08-03T15:35:47.739Z,26.88
2022-08-03T15:38:14.858Z,27.40
2022-08-03T15:40:41.821Z,27.04
2022-08-03T15:43:08.774Z,27.25
2022-08-03T15:45:36.607Z,27.31
2022-08-03T15:48:07.161Z,27.35
2022-08-03T15:50:33.885Z,27.23
2022-08-03T15:53:00.555Z,26.95
2022-08-03T15:55:27.414Z,27.37
2022-08-03T15:59:10.430Z,27.23
2022-08-03T16:00:42.747Z,27.84
2022-08-03T16:03:10.139Z,27.70
2022-08-03T16:05:36.985Z,27.48
2022-08-03T16:08:05.616Z,27.62
2022-08-03T16:10:33.774Z,27.41
2022-08-03T16:13:00.787Z,27.94
2022-08-03T16:15:27.836Z,28.12
2022-08-03T16:17:54.929Z,27.71
2022-08-03T16:20:31.668Z,28.20
2022-08-03T16:23:10.333Z,28.42
2022-08-03T16:25:39.402Z,28.30
2022-08-03T16:28:13.117Z,28.36
2022-08-03T16:30:44.353Z,28.46
2022-08-03T16:33:17.062Z,28.06
2022-08-03T16:35:49.630Z,27.66
2022-08-03T16:38:19.039Z,28.15
2022-08-03T16:40:51.577Z,27.89
2022-08-03T16:43:19.712Z,28.49
2022-08-03T16:45:47.826Z,28.88
2022-08-03T16:48:15.788Z,28.71
2022-08-03T16:50:42.532Z,28.80
2022-08-03T16:53:16.766Z,29.18
2022-08-03T16:55:51.937Z,29.16
2022-08-03T16:58:34.233Z,29.32
2022-08-03T17:03:42.645Z,28.53
2022-08-03T17:06:33.884Z,29.21
2022-08-03T17:09:03.244Z,29.18
2022-08-03T17:11:32.958Z,29.51
2022-08-03T17:14:00.420Z,29.28
2022-08-03T17:16:27.518Z,29.27
2022-08-03T17:19:02.011Z,29.09
2022-08-03T17:21:33.203Z,28.80
2022-08-03T17:24:34.411Z,28.95
2022-08-03T17:27:08.583Z,28.96
2022-08-03T17:29:45.270Z,29.04
2022-08-03T17:32:18.092Z,28.97
2022-08-03T17:34:48.953Z,28.97
2022-08-03T17:37:50.692Z,29.27
2022-08-03T17:40:03.969Z,29.36
2022-08-03T17:42:32.940Z,29.40
2022-08-03T17:45:01.593Z,28.86
2022-08-03T17:47:41.864Z,28.74
2022-08-03T17:50:23.508Z,28.79
2022-08-03T17:53:01.268Z,28.78
2022-08-03T17:55:56.041Z,28.38
2022-08-03T17:58:36.751Z,28.72
2022-08-03T18:01:59.761Z,28.39
2022-08-03T18:04:12.691Z,28.24
2022-08-03T18:06:56.315Z,27.98
2022-08-03T18:10:05.183Z,28.16
2022-08-03T18:12:18.992Z,28.70
2022-08-03T18:14:57.886Z,28.33
2022-08-03T18:17:55.464Z,28.51
2022-08-03T18:20:32.890Z,28.20
2022-08-03T18:23:04.746Z,28.33
2022-08-03T18:25:42.992Z,28.56
2022-08-03T18:28:14.628Z,28.46
2022-08-03T18:30:54.063Z,28.48
2022-08-03T18:34:16.411Z,28.53
2022-08-03T18:39:01.731Z,28.82
2022-08-03T18:41:32.246Z,29.02
2022-08-03T18:44:07.181Z,29.48
2022-08-03T18:47:07.373Z,29.72
2022-08-03T18:50:12.295Z,30.38
2022-08-03T18:53:19.589Z,30.43
2022-08-03T18:56:02.260Z,30.79
2022-08-03T18:59:02.524Z,31.57
2022-08-03T19:02:00.851Z,31.43
2022-08-03T19:04:30.472Z,31.60
2022-08-03T19:07:09.287Z,32.01
2022-08-03T19:09:49.466Z,31.66
2022-08-03T19:12:30.637Z,32.36
2022-08-03T19:15:13.560Z,32.84
2022-08-03T19:17:50.087Z,32.52
2022-08-03T19:20:21.994Z,33.10
2022-08-03T19:22:51.155Z,32.92
2022-08-03T19:25:18.262Z,33.11
2022-08-03T19:27:47.207Z,33.13
2022-08-03T19:30:35.635Z,33.65
2022-08-03T19:33:07.056Z,33.82
2022-08-03T19:35:52.036Z,33.63
2022-08-03T19:38:28.335Z,33.88
2022-08-03T19:41:02.632Z,33.44
2022-08-03T19:43:52.604Z,33.72
2022-08-03T19:46:21.822Z,33.86
2022-08-03T19:49:14.953Z,34.51
2022-08-03T19:52:01.194Z,34.09
2022-08-03T19:54:39.556Z,34.16
2022-08-03T19:57:18.600Z,34.26
2022-08-03T19:59:49.908Z,34.59
2022-08-03T20:02:27.289Z,34.92
2022-08-03T20:05:00.014Z,34.67
2022-08-03T20:07:47.643Z,34.53
2022-08-03T20:10:16.561Z,34.86
2022-08-03T20:12:44.918Z,34.75
2022-08-03T20:15:12.233Z,34.70
2022-08-03T20:17:56.837Z,35.01
2022-08-03T20:20:32.697Z,35.07
2022-08-03T20:23:03.916Z,35.15
2022-08-03T20:25:48.686Z,35.09
2022-08-03T20:28:50.335Z,34.95
2022-08-03T20:31:18.952Z,35.49
2022-08-03T20:33:49.098Z,35.36
2022-08-03T20:36:17.892Z,35.14
2022-08-03T20:38:47.260Z,35.38
2022-08-03T20:41:15.806Z,35.80
2022-08-03T20:43:42.421Z,35.74
2022-08-03T20:46:32.005Z,35.97
2022-08-03T20:48:59.009Z,35.37
2022-08-03T20:51:49.162Z,35.87
2022-08-03T20:54:28.948Z,35.62
2022-08-03T20:56:58.366Z,36.09
2022-08-03T20:59:29.893Z,36.27
2022-08-03T21:02:00.251Z,36.33
2022-08-03T21:04:27.021Z,36.71
2022-08-03T21:07:04.684Z,36.49
2022-08-03T21:09:57.110Z,36.60
2022-08-03T21:12:34.068Z,36.63
2022-08-03T21:13:05.735Z,28.68
2022-08-03T21:15:05.787Z,36.87
2022-08-03T21:17:41.993Z,36.50
2022-08-03T21:20:11.804Z,36.73
2022-08-03T21:22:39.513Z,36.82
2022-08-03T21:25:09.363Z,36.62
2022-08-03T21:27:36.734Z,37.06
2022-08-03T21:30:07.947Z,36.89
2022-08-03T21:32:35.096Z,36.88
2022-08-03T21:35:02.245Z,36.73
2022-08-03T21:37:29.160Z,37.02
2022-08-03T21:39:56.514Z,37.33
2022-08-03T21:42:24.497Z,36.93
2022-08-03T21:44:52.180Z,37.48
2022-08-03T21:47:22.065Z,37.26
2022-08-03T21:50:08.442Z,37.40
2022-08-03T21:52:44.884Z,37.56
2022-08-03T21:55:18.290Z,37.93
2022-08-03T21:57:52.886Z,38.19
2022-08-03T22:00:21.936Z,38.52
2022-08-03T22:02:56.075Z,38.66
2022-08-03T22:05:43.036Z,38.20
2022-08-03T22:08:14.247Z,38.49
2022-08-03T22:10:44.296Z,38.59
2022-08-03T22:13:12.934Z,38.65
2022-08-03T22:15:39.699Z,38.72
2022-08-03T22:18:06.592Z,38.82
2022-08-03T22:20:33.395Z,38.99
2022-08-03T22:23:06.799Z,39.24
2022-08-03T22:25:35.869Z,39.35
2022-08-03T22:28:07.977Z,39.43
2022-08-03T22:30:34.994Z,39.50
2022-08-03T22:33:04.197Z,39.67
2022-08-03T22:35:32.402Z,39.85
2022-08-03T22:38:13.549Z,39.69
2022-08-03T22:40:40.475Z,39.85
2022-08-03T22:43:07.763Z,40.00
2022-08-03T22:45:45.832Z,39.81
2022-08-03T22:48:22.939Z,40.03
2022-08-03T22:50:50.227Z,40.06
2022-08-03T22:53:18.912Z,40.65
2022-08-03T22:55:47.637Z,40.77
2022-08-03T22:58:17.530Z,40.74
2022-08-03T23:00:56.385Z,40.76
2022-08-03T23:03:59.712Z,40.35
2022-08-03T23:06:20.195Z,40.41
2022-08-03T23:08:47.697Z,40.40
2022-08-03T23:11:17.601Z,40.26
2022-08-03T23:13:49.184Z,40.51
2022-08-03T23:16:29.675Z,40.48
2022-08-03T23:18:58.765Z,40.26
2022-08-03T23:21:59.857Z,40.58
2022-08-03T23:24:26.001Z,41.17
2022-08-03T23:26:57.749Z,40.45
2022-08-03T23:29:26.248Z,40.46
2022-08-03T23:31:54.728Z,40.15
2022-08-03T23:34:40.546Z,40.32
2022-08-03T23:37:07.193Z,40.61
2022-08-03T23:39:35.147Z,40.76
2022-08-03T23:42:03.077Z,40.72
2022-08-03T23:44:31.383Z,40.88
2022-08-03T23:46:58.104Z,40.93
2022-08-03T23:49:24.863Z,41.07
2022-08-03T23:51:55.857Z,40.91
2022-08-03T23:54:26.969Z,40.85
2022-08-03T23:57:06.312Z,40.88
2022-08-03T23:59:39.115Z,40.88
